sensor_id;sensor_type;location;lat;lon;timestamp;temperature;humidity
78571;SHT31;67861;51.966;5.672;2024-03-02T00:01:10;11.4;55.8
78571;SHT31;67861;51.966;5.672;2024-03-02T00:03:39;11.4;55.7
78571;SHT31;67861;51.966;5.672;2024-03-02T00:06:08;11.4;55.4
78571;SHT31;67861;51.966;5.672;2024-03-02T00:08:36;11.4;55.7
78571;SHT31;67861;51.966;5.672;2024-03-02T00:11:07;11.5;55.6
78571;SHT31;67861;51.966;5.672;2024-03-02T00:13:37;11.5;55.5
78571;SHT31;67861;51.966;5.672;2024-03-02T00:16:06;11.5;55.7
78571;SHT31;67861;51.966;5.672;2024-03-02T00:18:35;11.5;55.6
78571;SHT31;67861;51.966;5.672;2024-03-02T00:21:06;11.5;55.9
78571;SHT31;67861;51.966;5.672;2024-03-02T00:23:37;11.5;55.9
78571;SHT31;67861;51.966;5.672;2024-03-02T00:26:06;11.5;56.0
78571;SHT31;67861;51.966;5.672;2024-03-02T00:28:36;11.5;56.2
78571;SHT31;67861;51.966;5.672;2024-03-02T00:31:06;11.5;55.9
78571;SHT31;67861;51.966;5.672;2024-03-02T00:33:38;11.5;56.2
78571;SHT31;67861;51.966;5.672;2024-03-02T00:36:10;11.5;56.4
78571;SHT31;67861;51.966;5.672;2024-03-02T00:38:46;11.5;56.1
78571;SHT31;67861;51.966;5.672;2024-03-02T00:41:21;11.5;56.0
78571;SHT31;67861;51.966;5.672;2024-03-02T00:43:57;11.5;56.2
78571;SHT31;67861;51.966;5.672;2024-03-02T00:46:28;11.5;56.1
78571;SHT31;67861;51.966;5.672;2024-03-02T00:49:01;11.5;55.4
78571;SHT31;67861;51.966;5.672;2024-03-02T00:51:31;11.5;55.3
78571;SHT31;67861;51.966;5.672;2024-03-02T00:54:01;11.5;55.7
78571;SHT31;67861;51.966;5.672;2024-03-02T00:56:30;11.5;55.7
78571;SHT31;67861;51.966;5.672;2024-03-02T00:59:01;11.5;56.2
78571;SHT31;67861;51.966;5.672;2024-03-02T01:01:29;11.5;56.9
78571;SHT31;67861;51.966;5.672;2024-03-02T01:03:58;11.5;57.6
78571;SHT31;67861;51.966;5.672;2024-03-02T01:06:26;11.5;58.1
78571;SHT31;67861;51.966;5.672;2024-03-02T01:08:55;11.5;58.5
78571;SHT31;67861;51.966;5.672;2024-03-02T01:11:25;11.5;58.8
78571;SHT31;67861;51.966;5.672;2024-03-02T01:13:54;11.5;59.2
78571;SHT31;67861;51.966;5.672;2024-03-02T01:16:24;11.5;59.0
78571;SHT31;67861;51.966;5.672;2024-03-02T01:18:53;11.5;59.0
78571;SHT31;67861;51.966;5.672;2024-03-02T01:21:21;11.5;59.1
78571;SHT31;67861;51.966;5.672;2024-03-02T01:23:50;11.5;59.2
78571;SHT31;67861;51.966;5.672;2024-03-02T01:26:20;11.5;59.3
78571;SHT31;67861;51.966;5.672;2024-03-02T01:28:48;11.5;59.6
78571;SHT31;67861;51.966;5.672;2024-03-02T01:31:17;11.4;59.7
78571;SHT31;67861;51.966;5.672;2024-03-02T01:33:45;11.4;59.8
78571;SHT31;67861;51.966;5.672;2024-03-02T01:36:14;11.4;59.8
78571;SHT31;67861;51.966;5.672;2024-03-02T01:38:42;11.4;59.8
78571;SHT31;67861;51.966;5.672;2024-03-02T01:41:11;11.4;59.9
78571;SHT31;67861;51.966;5.672;2024-03-02T01:43:40;11.4;59.7
78571;SHT31;67861;51.966;5.672;2024-03-02T01:46:08;11.4;60.0
78571;SHT31;67861;51.966;5.672;2024-03-02T01:48:37;11.4;60.1
78571;SHT31;67861;51.966;5.672;2024-03-02T01:51:06;11.3;59.9
78571;SHT31;67861;51.966;5.672;2024-03-02T01:53:37;11.3;60.0
78571;SHT31;67861;51.966;5.672;2024-03-02T01:56:06;11.3;60.3
78571;SHT31;67861;51.966;5.672;2024-03-02T01:58:35;11.3;60.4
78571;SHT31;67861;51.966;5.672;2024-03-02T02:01:03;11.3;60.7
78571;SHT31;67861;51.966;5.672;2024-03-02T02:03:32;11.2;60.8
78571;SHT31;67861;51.966;5.672;2024-03-02T02:06:01;11.2;60.9
78571;SHT31;67861;51.966;5.672;2024-03-02T02:08:30;11.2;60.9
78571;SHT31;67861;51.966;5.672;2024-03-02T02:10:58;11.2;61.0
78571;SHT31;67861;51.966;5.672;2024-03-02T02:13:29;11.2;61.0
78571;SHT31;67861;51.966;5.672;2024-03-02T02:16:07;11.2;60.7
78571;SHT31;67861;51.966;5.672;2024-03-02T02:18:36;11.2;60.7
78571;SHT31;67861;51.966;5.672;2024-03-02T02:21:05;11.2;60.9
78571;SHT31;67861;51.966;5.672;2024-03-02T02:23:34;11.2;60.9
78571;SHT31;67861;51.966;5.672;2024-03-02T02:26:03;11.2;60.8
78571;SHT31;67861;51.966;5.672;2024-03-02T02:28:32;11.2;61.0
78571;SHT31;67861;51.966;5.672;2024-03-02T02:31:00;11.1;61.0
78571;SHT31;67861;51.966;5.672;2024-03-02T02:33:29;11.1;60.8
78571;SHT31;67861;51.966;5.672;2024-03-02T02:35:59;11.1;61.3
78571;SHT31;67861;51.966;5.672;2024-03-02T02:38:28;11.1;61.4
78571;SHT31;67861;51.966;5.672;2024-03-02T02:40:56;11.1;61.6
78571;SHT31;67861;51.966;5.672;2024-03-02T02:43:25;11.1;61.8
78571;SHT31;67861;51.966;5.672;2024-03-02T02:45:53;11.1;62.1
78571;SHT31;67861;51.966;5.672;2024-03-02T02:48:22;11.1;62.5
78571;SHT31;67861;51.966;5.672;2024-03-02T02:50:50;11.1;62.9
78571;SHT31;67861;51.966;5.672;2024-03-02T02:53:21;11.1;62.9
78571;SHT31;67861;51.966;5.672;2024-03-02T02:55:50;11.0;63.0
78571;SHT31;67861;51.966;5.672;2024-03-02T02:58:18;11.0;63.2
78571;SHT31;67861;51.966;5.672;2024-03-02T03:00:47;11.0;63.2
78571;SHT31;67861;51.966;5.672;2024-03-02T03:03:15;11.0;63.5
78571;SHT31;67861;51.966;5.672;2024-03-02T03:05:44;11.0;63.2
78571;SHT31;67861;51.966;5.672;2024-03-02T03:08:12;11.0;63.3
78571;SHT31;67861;51.966;5.672;2024-03-02T03:10:42;10.9;63.1
78571;SHT31;67861;51.966;5.672;2024-03-02T03:13:11;10.9;63.3
78571;SHT31;67861;51.966;5.672;2024-03-02T03:15:39;10.9;63.0
78571;SHT31;67861;51.966;5.672;2024-03-02T03:18:08;10.9;63.2
78571;SHT31;67861;51.966;5.672;2024-03-02T03:20:37;10.8;63.6
78571;SHT31;67861;51.966;5.672;2024-03-02T03:23:07;10.8;63.6
78571;SHT31;67861;51.966;5.672;2024-03-02T03:25:36;10.8;63.4
78571;SHT31;67861;51.966;5.672;2024-03-02T03:28:04;10.8;63.3
78571;SHT31;67861;51.966;5.672;2024-03-02T03:30:33;10.8;63.3
78571;SHT31;67861;51.966;5.672;2024-03-02T03:33:04;10.8;63.3
78571;SHT31;67861;51.966;5.672;2024-03-02T03:35:33;10.8;63.4
78571;SHT31;67861;51.966;5.672;2024-03-02T03:38:01;10.7;63.5
78571;SHT31;67861;51.966;5.672;2024-03-02T03:40:29;10.7;63.4
78571;SHT31;67861;51.966;5.672;2024-03-02T03:42:58;10.7;63.2
78571;SHT31;67861;51.966;5.672;2024-03-02T03:45:27;10.7;63.4
78571;SHT31;67861;51.966;5.672;2024-03-02T03:47:56;10.7;63.1
78571;SHT31;67861;51.966;5.672;2024-03-02T03:50:25;10.7;63.1
78571;SHT31;67861;51.966;5.672;2024-03-02T03:52:53;10.7;63.0
78571;SHT31;67861;51.966;5.672;2024-03-02T03:55:22;10.7;62.9
78571;SHT31;67861;51.966;5.672;2024-03-02T03:57:51;10.7;63.1
78571;SHT31;67861;51.966;5.672;2024-03-02T04:00:19;10.7;63.1
78571;SHT31;67861;51.966;5.672;2024-03-02T04:02:48;10.7;63.2
78571;SHT31;67861;51.966;5.672;2024-03-02T04:05:16;10.6;63.4
78571;SHT31;67861;51.966;5.672;2024-03-02T04:07:45;10.6;63.4
78571;SHT31;67861;51.966;5.672;2024-03-02T04:10:13;10.6;63.7
78571;SHT31;67861;51.966;5.672;2024-03-02T04:12:45;10.6;63.4
78571;SHT31;67861;51.966;5.672;2024-03-02T04:15:16;10.6;62.8
78571;SHT31;67861;51.966;5.672;2024-03-02T04:17:45;10.6;62.9
78571;SHT31;67861;51.966;5.672;2024-03-02T04:20:15;10.6;62.4
78571;SHT31;67861;51.966;5.672;2024-03-02T04:22:46;10.6;62.5
78571;SHT31;67861;51.966;5.672;2024-03-02T04:25:14;10.6;62.6
78571;SHT31;67861;51.966;5.672;2024-03-02T04:27:43;10.6;62.7
78571;SHT31;67861;51.966;5.672;2024-03-02T04:30:12;10.6;62.7
78571;SHT31;67861;51.966;5.672;2024-03-02T04:32:40;10.5;62.5
78571;SHT31;67861;51.966;5.672;2024-03-02T04:35:12;10.5;62.6
78571;SHT31;67861;51.966;5.672;2024-03-02T04:37:41;10.5;62.6
78571;SHT31;67861;51.966;5.672;2024-03-02T04:40:10;10.5;62.4
78571;SHT31;67861;51.966;5.672;2024-03-02T04:42:40;10.5;62.2
78571;SHT31;67861;51.966;5.672;2024-03-02T04:45:09;10.5;61.9
78571;SHT31;67861;51.966;5.672;2024-03-02T04:47:37;10.5;61.8
78571;SHT31;67861;51.966;5.672;2024-03-02T04:50:09;10.5;61.7
78571;SHT31;67861;51.966;5.672;2024-03-02T04:52:37;10.5;61.8
78571;SHT31;67861;51.966;5.672;2024-03-02T04:55:06;10.5;61.6
78571;SHT31;67861;51.966;5.672;2024-03-02T04:57:43;10.5;62.0
78571;SHT31;67861;51.966;5.672;2024-03-02T05:00:13;10.5;61.8
78571;SHT31;67861;51.966;5.672;2024-03-02T05:02:41;10.5;62.0
78571;SHT31;67861;51.966;5.672;2024-03-02T05:05:10;10.5;62.0
78571;SHT31;67861;51.966;5.672;2024-03-02T05:07:39;10.5;62.1
78571;SHT31;67861;51.966;5.672;2024-03-02T05:10:10;10.5;62.2
78571;SHT31;67861;51.966;5.672;2024-03-02T05:12:40;10.4;62.0
78571;SHT31;67861;51.966;5.672;2024-03-02T05:15:26;10.4;62.1
78571;SHT31;67861;51.966;5.672;2024-03-02T05:17:54;10.4;62.2
78571;SHT31;67861;51.966;5.672;2024-03-02T05:20:23;10.4;62.1
78571;SHT31;67861;51.966;5.672;2024-03-02T05:22:51;10.4;62.2
78571;SHT31;67861;51.966;5.672;2024-03-02T05:25:20;10.4;62.1
78571;SHT31;67861;51.966;5.672;2024-03-02T05:27:49;10.4;62.2
78571;SHT31;67861;51.966;5.672;2024-03-02T05:30:18;10.3;62.2
78571;SHT31;67861;51.966;5.672;2024-03-02T05:32:46;10.3;62.3
78571;SHT31;67861;51.966;5.672;2024-03-02T05:35:15;10.3;62.4
78571;SHT31;67861;51.966;5.672;2024-03-02T05:37:43;10.3;62.6
78571;SHT31;67861;51.966;5.672;2024-03-02T05:40:12;10.3;62.7
78571;SHT31;67861;51.966;5.672;2024-03-02T05:42:41;10.2;62.8
78571;SHT31;67861;51.966;5.672;2024-03-02T05:45:10;10.2;63.1
78571;SHT31;67861;51.966;5.672;2024-03-02T05:47:39;10.2;63.4
78571;SHT31;67861;51.966;5.672;2024-03-02T05:50:08;10.2;63.3
78571;SHT31;67861;51.966;5.672;2024-03-02T05:52:36;10.2;63.4
78571;SHT31;67861;51.966;5.672;2024-03-02T05:55:06;10.2;63.2
78571;SHT31;67861;51.966;5.672;2024-03-02T05:57:34;10.2;63.4
78571;SHT31;67861;51.966;5.672;2024-03-02T06:00:12;10.3;62.8
78571;SHT31;67861;51.966;5.672;2024-03-02T06:02:43;10.3;62.7
78571;SHT31;67861;51.966;5.672;2024-03-02T06:05:12;10.3;61.8
78571;SHT31;67861;51.966;5.672;2024-03-02T06:07:41;10.3;61.6
78571;SHT31;67861;51.966;5.672;2024-03-02T06:10:10;10.3;61.6
78571;SHT31;67861;51.966;5.672;2024-03-02T06:12:39;10.3;61.2
78571;SHT31;67861;51.966;5.672;2024-03-02T06:15:08;10.3;61.1
78571;SHT31;67861;51.966;5.672;2024-03-02T06:17:36;10.3;61.0
78571;SHT31;67861;51.966;5.672;2024-03-02T06:20:05;10.2;60.8
78571;SHT31;67861;51.966;5.672;2024-03-02T06:22:34;10.2;60.9
78571;SHT31;67861;51.966;5.672;2024-03-02T06:25:03;10.2;61.0
78571;SHT31;67861;51.966;5.672;2024-03-02T06:27:32;10.2;60.8
78571;SHT31;67861;51.966;5.672;2024-03-02T06:30:00;10.2;61.0
78571;SHT31;67861;51.966;5.672;2024-03-02T06:32:30;10.2;61.0
78571;SHT31;67861;51.966;5.672;2024-03-02T06:34:58;10.1;61.1
78571;SHT31;67861;51.966;5.672;2024-03-02T06:37:27;10.1;61.2
78571;SHT31;67861;51.966;5.672;2024-03-02T06:39:56;10.1;61.3
78571;SHT31;67861;51.966;5.672;2024-03-02T06:42:24;10.1;61.2
78571;SHT31;67861;51.966;5.672;2024-03-02T06:44:53;10.1;60.7
78571;SHT31;67861;51.966;5.672;2024-03-02T06:47:22;10.1;60.7
78571;SHT31;67861;51.966;5.672;2024-03-02T06:49:50;10.1;61.0
78571;SHT31;67861;51.966;5.672;2024-03-02T06:52:19;10.1;60.8
78571;SHT31;67861;51.966;5.672;2024-03-02T06:54:48;10.1;60.5
78571;SHT31;67861;51.966;5.672;2024-03-02T06:57:17;10.1;60.6
78571;SHT31;67861;51.966;5.672;2024-03-02T06:59:47;10.1;60.1
78571;SHT31;67861;51.966;5.672;2024-03-02T07:02:17;10.1;60.3
78571;SHT31;67861;51.966;5.672;2024-03-02T07:04:45;10.1;60.4
78571;SHT31;67861;51.966;5.672;2024-03-02T07:07:16;10.0;60.6
78571;SHT31;67861;51.966;5.672;2024-03-02T07:09:45;10.0;61.0
78571;SHT31;67861;51.966;5.672;2024-03-02T07:12:14;10.0;61.0
78571;SHT31;67861;51.966;5.672;2024-03-02T07:14:42;10.0;61.4
78571;SHT31;67861;51.966;5.672;2024-03-02T07:17:28;10.0;61.8
78571;SHT31;67861;51.966;5.672;2024-03-02T07:19:57;10.0;61.7
78571;SHT31;67861;51.966;5.672;2024-03-02T07:22:27;10.1;61.6
78571;SHT31;67861;51.966;5.672;2024-03-02T07:24:56;10.1;62.0
78571;SHT31;67861;51.966;5.672;2024-03-02T07:27:25;10.1;62.0
78571;SHT31;67861;51.966;5.672;2024-03-02T07:29:53;10.1;62.1
78571;SHT31;67861;51.966;5.672;2024-03-02T07:32:22;10.1;62.3
78571;SHT31;67861;51.966;5.672;2024-03-02T07:34:50;10.1;62.5
78571;SHT31;67861;51.966;5.672;2024-03-02T07:37:19;10.2;62.4
78571;SHT31;67861;51.966;5.672;2024-03-02T07:39:49;10.2;62.4
78571;SHT31;67861;51.966;5.672;2024-03-02T07:42:20;10.2;62.4
78571;SHT31;67861;51.966;5.672;2024-03-02T07:44:49;10.2;61.9
78571;SHT31;67861;51.966;5.672;2024-03-02T07:47:17;10.3;61.8
78571;SHT31;67861;51.966;5.672;2024-03-02T07:49:46;10.3;62.1
78571;SHT31;67861;51.966;5.672;2024-03-02T07:52:15;10.3;62.8
78571;SHT31;67861;51.966;5.672;2024-03-02T07:54:43;10.4;62.7
78571;SHT31;67861;51.966;5.672;2024-03-02T07:57:12;10.4;63.0
78571;SHT31;67861;51.966;5.672;2024-03-02T07:59:40;10.5;62.9
78571;SHT31;67861;51.966;5.672;2024-03-02T08:02:09;10.5;62.3
78571;SHT31;67861;51.966;5.672;2024-03-02T08:04:39;10.6;62.2
78571;SHT31;67861;51.966;5.672;2024-03-02T08:07:07;10.7;60.9
78571;SHT31;67861;51.966;5.672;2024-03-02T08:09:36;10.7;61.3
78571;SHT31;67861;51.966;5.672;2024-03-02T08:12:05;10.8;60.0
78571;SHT31;67861;51.966;5.672;2024-03-02T08:14:35;10.8;60.8
78571;SHT31;67861;51.966;5.672;2024-03-02T08:17:03;10.8;60.3
78571;SHT31;67861;51.966;5.672;2024-03-02T08:19:36;10.9;59.9
78571;SHT31;67861;51.966;5.672;2024-03-02T08:22:07;10.9;60.3
78571;SHT31;67861;51.966;5.672;2024-03-02T08:24:36;10.9;59.9
78571;SHT31;67861;51.966;5.672;2024-03-02T08:27:04;11.0;60.4
78571;SHT31;67861;51.966;5.672;2024-03-02T08:29:33;11.0;58.9
78571;SHT31;67861;51.966;5.672;2024-03-02T08:32:02;11.0;59.0
78571;SHT31;67861;51.966;5.672;2024-03-02T08:34:30;11.1;58.1
78571;SHT31;67861;51.966;5.672;2024-03-02T08:37:00;11.1;58.0
78571;SHT31;67861;51.966;5.672;2024-03-02T08:39:29;11.1;57.7
78571;SHT31;67861;51.966;5.672;2024-03-02T08:41:58;11.1;57.3
78571;SHT31;67861;51.966;5.672;2024-03-02T08:44:27;11.1;57.2
78571;SHT31;67861;51.966;5.672;2024-03-02T08:46:55;11.1;56.8
78571;SHT31;67861;51.966;5.672;2024-03-02T08:49:24;11.1;57.3
78571;SHT31;67861;51.966;5.672;2024-03-02T08:51:52;11.1;57.2
78571;SHT31;67861;51.966;5.672;2024-03-02T08:54:22;11.1;56.6
78571;SHT31;67861;51.966;5.672;2024-03-02T08:56:51;11.1;56.9
78571;SHT31;67861;51.966;5.672;2024-03-02T08:59:21;11.1;57.4
78571;SHT31;67861;51.966;5.672;2024-03-02T09:01:51;11.1;57.7
78571;SHT31;67861;51.966;5.672;2024-03-02T09:04:20;11.1;57.0
78571;SHT31;67861;51.966;5.672;2024-03-02T09:06:49;11.1;56.8
78571;SHT31;67861;51.966;5.672;2024-03-02T09:09:19;11.1;56.3
78571;SHT31;67861;51.966;5.672;2024-03-02T09:11:48;11.1;56.1
78571;SHT31;67861;51.966;5.672;2024-03-02T09:14:16;11.2;57.5
78571;SHT31;67861;51.966;5.672;2024-03-02T09:16:45;11.2;57.6
78571;SHT31;67861;51.966;5.672;2024-03-02T09:19:14;11.3;57.2
78571;SHT31;67861;51.966;5.672;2024-03-02T09:21:43;11.3;57.7
78571;SHT31;67861;51.966;5.672;2024-03-02T09:24:12;11.4;57.2
78571;SHT31;67861;51.966;5.672;2024-03-02T09:26:41;11.4;56.3
78571;SHT31;67861;51.966;5.672;2024-03-02T09:29:09;11.5;57.2
78571;SHT31;67861;51.966;5.672;2024-03-02T09:31:41;11.6;57.3
78571;SHT31;67861;51.966;5.672;2024-03-02T09:34:09;11.7;55.4
78571;SHT31;67861;51.966;5.672;2024-03-02T09:36:38;11.8;55.8
78571;SHT31;67861;51.966;5.672;2024-03-02T09:39:07;11.9;55.9
78571;SHT31;67861;51.966;5.672;2024-03-02T09:41:36;12.0;55.1
78571;SHT31;67861;51.966;5.672;2024-03-02T09:44:05;12.1;54.6
78571;SHT31;67861;51.966;5.672;2024-03-02T09:46:34;12.2;55.6
78571;SHT31;67861;51.966;5.672;2024-03-02T09:49:03;12.2;54.7
78571;SHT31;67861;51.966;5.672;2024-03-02T09:51:32;12.3;55.4
78571;SHT31;67861;51.966;5.672;2024-03-02T09:54:01;12.4;54.6
78571;SHT31;67861;51.966;5.672;2024-03-02T09:56:29;12.5;55.4
78571;SHT31;67861;51.966;5.672;2024-03-02T09:58:58;12.6;55.0
78571;SHT31;67861;51.966;5.672;2024-03-02T10:01:27;12.7;54.7
78571;SHT31;67861;51.966;5.672;2024-03-02T10:03:59;12.8;55.3
78571;SHT31;67861;51.966;5.672;2024-03-02T10:06:29;12.9;53.5
78571;SHT31;67861;51.966;5.672;2024-03-02T10:08:57;13.0;52.0
78571;SHT31;67861;51.966;5.672;2024-03-02T10:11:28;13.1;52.5
78571;SHT31;67861;51.966;5.672;2024-03-02T10:14:08;13.2;51.5
78571;SHT31;67861;51.966;5.672;2024-03-02T10:16:38;13.3;51.6
78571;SHT31;67861;51.966;5.672;2024-03-02T10:19:20;13.4;50.8
78571;SHT31;67861;51.966;5.672;2024-03-02T10:21:49;13.4;50.5
78571;SHT31;67861;51.966;5.672;2024-03-02T10:24:18;13.5;50.3
78571;SHT31;67861;51.966;5.672;2024-03-02T10:26:47;13.6;49.5
78571;SHT31;67861;51.966;5.672;2024-03-02T10:29:16;13.6;50.1
78571;SHT31;67861;51.966;5.672;2024-03-02T10:31:46;13.7;50.2
78571;SHT31;67861;51.966;5.672;2024-03-02T10:34:14;13.8;50.0
78571;SHT31;67861;51.966;5.672;2024-03-02T10:36:44;13.8;49.3
78571;SHT31;67861;51.966;5.672;2024-03-02T10:39:14;13.9;49.2
78571;SHT31;67861;51.966;5.672;2024-03-02T10:41:44;14.0;48.6
78571;SHT31;67861;51.966;5.672;2024-03-02T10:44:14;14.0;47.3
78571;SHT31;67861;51.966;5.672;2024-03-02T10:46:46;14.1;47.2
78571;SHT31;67861;51.966;5.672;2024-03-02T10:49:15;14.1;48.1
78571;SHT31;67861;51.966;5.672;2024-03-02T10:51:46;14.2;49.5
78571;SHT31;67861;51.966;5.672;2024-03-02T10:54:15;14.2;48.9
78571;SHT31;67861;51.966;5.672;2024-03-02T10:56:46;14.3;48.2
78571;SHT31;67861;51.966;5.672;2024-03-02T10:59:24;14.3;47.4
78571;SHT31;67861;51.966;5.672;2024-03-02T11:01:57;14.4;48.3
78571;SHT31;67861;51.966;5.672;2024-03-02T11:04:27;14.5;48.7
78571;SHT31;67861;51.966;5.672;2024-03-02T11:06:59;14.5;48.8
78571;SHT31;67861;51.966;5.672;2024-03-02T11:09:30;14.6;48.4
78571;SHT31;67861;51.966;5.672;2024-03-02T11:12:03;14.6;48.2
78571;SHT31;67861;51.966;5.672;2024-03-02T11:14:40;14.7;46.2
78571;SHT31;67861;51.966;5.672;2024-03-02T11:17:11;14.7;46.2
78571;SHT31;67861;51.966;5.672;2024-03-02T11:19:41;14.8;45.8
78571;SHT31;67861;51.966;5.672;2024-03-02T11:22:10;14.8;46.2
78571;SHT31;67861;51.966;5.672;2024-03-02T11:24:39;14.9;46.3
78571;SHT31;67861;51.966;5.672;2024-03-02T11:27:12;15.0;46.7
78571;SHT31;67861;51.966;5.672;2024-03-02T11:29:46;15.0;46.4
78571;SHT31;67861;51.966;5.672;2024-03-02T11:32:17;15.1;46.4
78571;SHT31;67861;51.966;5.672;2024-03-02T11:34:48;15.1;46.6
78571;SHT31;67861;51.966;5.672;2024-03-02T11:37:19;15.2;45.8
78571;SHT31;67861;51.966;5.672;2024-03-02T11:39:49;15.2;44.5
78571;SHT31;67861;51.966;5.672;2024-03-02T11:42:18;15.3;44.2
78571;SHT31;67861;51.966;5.672;2024-03-02T11:44:48;15.3;44.1
78571;SHT31;67861;51.966;5.672;2024-03-02T11:47:17;15.4;44.2
78571;SHT31;67861;51.966;5.672;2024-03-02T11:49:49;15.4;42.8
78571;SHT31;67861;51.966;5.672;2024-03-02T11:52:22;15.4;42.2
78571;SHT31;67861;51.966;5.672;2024-03-02T11:54:53;15.5;42.3
78571;SHT31;67861;51.966;5.672;2024-03-02T11:57:22;15.5;42.6
78571;SHT31;67861;51.966;5.672;2024-03-02T11:59:50;15.5;43.2
78571;SHT31;67861;51.966;5.672;2024-03-02T12:02:20;15.5;43.6
78571;SHT31;67861;51.966;5.672;2024-03-02T12:04:49;15.6;41.2
78571;SHT31;67861;51.966;5.672;2024-03-02T12:07:22;15.6;42.0
78571;SHT31;67861;51.966;5.672;2024-03-02T12:10:01;15.6;42.0
78571;SHT31;67861;51.966;5.672;2024-03-02T12:12:30;15.7;42.3
78571;SHT31;67861;51.966;5.672;2024-03-02T12:14:58;15.7;42.5
78571;SHT31;67861;51.966;5.672;2024-03-02T12:17:27;15.7;42.7
78571;SHT31;67861;51.966;5.672;2024-03-02T12:19:56;15.8;43.8
78571;SHT31;67861;51.966;5.672;2024-03-02T12:22:26;15.8;42.7
78571;SHT31;67861;51.966;5.672;2024-03-02T12:25:00;15.9;41.9
78571;SHT31;67861;51.966;5.672;2024-03-02T12:27:29;15.9;43.3
78571;SHT31;67861;51.966;5.672;2024-03-02T12:29:58;15.9;42.7
78571;SHT31;67861;51.966;5.672;2024-03-02T12:32:27;16.0;43.2
78571;SHT31;67861;51.966;5.672;2024-03-02T12:34:58;16.0;43.4
78571;SHT31;67861;51.966;5.672;2024-03-02T12:37:27;16.1;42.7
78571;SHT31;67861;51.966;5.672;2024-03-02T12:39:56;16.2;43.7
78571;SHT31;67861;51.966;5.672;2024-03-02T12:42:25;16.2;44.4
78571;SHT31;67861;51.966;5.672;2024-03-02T12:44:56;16.3;43.4
78571;SHT31;67861;51.966;5.672;2024-03-02T12:47:24;16.3;43.2
78571;SHT31;67861;51.966;5.672;2024-03-02T12:49:53;16.4;41.8
78571;SHT31;67861;51.966;5.672;2024-03-02T12:52:22;16.4;42.5
78571;SHT31;67861;51.966;5.672;2024-03-02T12:54:51;16.4;43.2
78571;SHT31;67861;51.966;5.672;2024-03-02T12:57:25;16.5;43.7
78571;SHT31;67861;51.966;5.672;2024-03-02T12:59:57;16.5;43.5
78571;SHT31;67861;51.966;5.672;2024-03-02T13:02:27;16.5;42.0
78571;SHT31;67861;51.966;5.672;2024-03-02T13:04:57;16.5;43.9
78571;SHT31;67861;51.966;5.672;2024-03-02T13:07:26;16.5;41.6
78571;SHT31;67861;51.966;5.672;2024-03-02T13:09:56;16.5;42.5
78571;SHT31;67861;51.966;5.672;2024-03-02T13:12:25;16.5;43.1
78571;SHT31;67861;51.966;5.672;2024-03-02T13:14:54;16.6;43.5
78571;SHT31;67861;51.966;5.672;2024-03-02T13:17:22;16.6;42.6
78571;SHT31;67861;51.966;5.672;2024-03-02T13:19:55;16.6;42.6
78571;SHT31;67861;51.966;5.672;2024-03-02T13:22:25;16.7;43.7
78571;SHT31;67861;51.966;5.672;2024-03-02T13:24:54;16.7;43.3
78571;SHT31;67861;51.966;5.672;2024-03-02T13:27:23;16.8;44.4
78571;SHT31;67861;51.966;5.672;2024-03-02T13:29:51;16.8;43.0
78571;SHT31;67861;51.966;5.672;2024-03-02T13:32:20;16.9;43.5
78571;SHT31;67861;51.966;5.672;2024-03-02T13:34:50;16.9;42.7
78571;SHT31;67861;51.966;5.672;2024-03-02T13:37:19;17.0;43.0
78571;SHT31;67861;51.966;5.672;2024-03-02T13:39:50;17.0;42.5
78571;SHT31;67861;51.966;5.672;2024-03-02T13:42:19;17.1;42.1
78571;SHT31;67861;51.966;5.672;2024-03-02T13:44:47;17.1;42.3
78571;SHT31;67861;51.966;5.672;2024-03-02T13:47:17;17.2;41.6
78571;SHT31;67861;51.966;5.672;2024-03-02T13:49:47;17.2;41.2
78571;SHT31;67861;51.966;5.672;2024-03-02T13:52:16;17.3;40.6
78571;SHT31;67861;51.966;5.672;2024-03-02T13:54:46;17.3;41.2
78571;SHT31;67861;51.966;5.672;2024-03-02T13:57:15;17.3;41.3
78571;SHT31;67861;51.966;5.672;2024-03-02T13:59:48;17.4;41.5
78571;SHT31;67861;51.966;5.672;2024-03-02T14:02:18;17.4;42.3
78571;SHT31;67861;51.966;5.672;2024-03-02T14:04:48;17.5;40.9
78571;SHT31;67861;51.966;5.672;2024-03-02T14:07:17;17.5;42.4
78571;SHT31;67861;51.966;5.672;2024-03-02T14:09:46;17.6;41.9
78571;SHT31;67861;51.966;5.672;2024-03-02T14:12:15;17.7;41.8
78571;SHT31;67861;51.966;5.672;2024-03-02T14:14:44;17.7;41.1
78571;SHT31;67861;51.966;5.672;2024-03-02T14:17:13;17.8;41.5
78571;SHT31;67861;51.966;5.672;2024-03-02T14:19:42;17.8;40.5
78571;SHT31;67861;51.966;5.672;2024-03-02T14:22:11;17.9;40.4
78571;SHT31;67861;51.966;5.672;2024-03-02T14:24:43;17.9;40.0
78571;SHT31;67861;51.966;5.672;2024-03-02T14:27:12;17.9;40.6
78571;SHT31;67861;51.966;5.672;2024-03-02T14:29:43;17.9;40.1
78571;SHT31;67861;51.966;5.672;2024-03-02T14:32:12;18.0;39.4
78571;SHT31;67861;51.966;5.672;2024-03-02T14:34:40;18.0;39.3
78571;SHT31;67861;51.966;5.672;2024-03-02T14:37:09;18.0;40.4
78571;SHT31;67861;51.966;5.672;2024-03-02T14:39:37;18.0;40.5
78571;SHT31;67861;51.966;5.672;2024-03-02T14:42:06;18.0;40.1
78571;SHT31;67861;51.966;5.672;2024-03-02T14:44:35;17.9;39.9
78571;SHT31;67861;51.966;5.672;2024-03-02T14:47:04;17.9;40.0
78571;SHT31;67861;51.966;5.672;2024-03-02T14:49:33;17.9;40.3
78571;SHT31;67861;51.966;5.672;2024-03-02T14:52:04;17.9;40.0
78571;SHT31;67861;51.966;5.672;2024-03-02T14:54:33;17.8;40.8
78571;SHT31;67861;51.966;5.672;2024-03-02T14:57:06;17.8;40.5
78571;SHT31;67861;51.966;5.672;2024-03-02T14:59:35;17.8;40.5
78571;SHT31;67861;51.966;5.672;2024-03-02T15:02:04;17.8;40.8
78571;SHT31;67861;51.966;5.672;2024-03-02T15:04:34;17.8;41.8
78571;SHT31;67861;51.966;5.672;2024-03-02T15:07:02;17.8;41.6
78571;SHT31;67861;51.966;5.672;2024-03-02T15:09:31;17.8;41.5
78571;SHT31;67861;51.966;5.672;2024-03-02T15:12:02;17.8;41.2
78571;SHT31;67861;51.966;5.672;2024-03-02T15:14:30;17.8;41.3
78571;SHT31;67861;51.966;5.672;2024-03-02T15:16:59;17.8;41.2
78571;SHT31;67861;51.966;5.672;2024-03-02T15:19:28;17.8;41.1
78571;SHT31;67861;51.966;5.672;2024-03-02T15:21:57;17.8;41.8
78571;SHT31;67861;51.966;5.672;2024-03-02T15:24:25;17.8;41.4
78571;SHT31;67861;51.966;5.672;2024-03-02T15:26:54;17.7;42.0
78571;SHT31;67861;51.966;5.672;2024-03-02T15:29:23;17.7;41.9
78571;SHT31;67861;51.966;5.672;2024-03-02T15:31:55;17.7;42.4
78571;SHT31;67861;51.966;5.672;2024-03-02T15:34:24;17.7;42.5
78571;SHT31;67861;51.966;5.672;2024-03-02T15:36:55;17.7;41.9
78571;SHT31;67861;51.966;5.672;2024-03-02T15:39:23;17.7;42.1
78571;SHT31;67861;51.966;5.672;2024-03-02T15:41:52;17.6;42.9
78571;SHT31;67861;51.966;5.672;2024-03-02T15:44:20;17.6;42.8
78571;SHT31;67861;51.966;5.672;2024-03-02T15:46:49;17.5;42.6
78571;SHT31;67861;51.966;5.672;2024-03-02T15:49:17;17.5;44.0
78571;SHT31;67861;51.966;5.672;2024-03-02T15:51:46;17.5;43.6
78571;SHT31;67861;51.966;5.672;2024-03-02T15:54:16;17.5;43.9
78571;SHT31;67861;51.966;5.672;2024-03-02T15:56:45;17.5;44.3
78571;SHT31;67861;51.966;5.672;2024-03-02T15:59:14;17.5;44.6
78571;SHT31;67861;51.966;5.672;2024-03-02T16:01:43;17.4;44.6
78571;SHT31;67861;51.966;5.672;2024-03-02T16:04:11;17.4;44.6
78571;SHT31;67861;51.966;5.672;2024-03-02T16:06:40;17.4;44.2
78571;SHT31;67861;51.966;5.672;2024-03-02T16:09:08;17.4;44.7
78571;SHT31;67861;51.966;5.672;2024-03-02T16:11:37;17.4;45.2
78571;SHT31;67861;51.966;5.672;2024-03-02T16:14:06;17.4;45.3
78571;SHT31;67861;51.966;5.672;2024-03-02T16:16:34;17.4;44.8